Time;durP1;ratioP1;P1;durP2;ratioP2;P2;SDS_P1;SDS_P2;PMS_P1;PMS_P2;Temp;Humidity;BMP_temperature;BMP_pressure;BME280_temperature;BME280_humidity;BME280_pressure;Samples;Min_cycle;Max_cycle;Signal;HPM_P1;HPM_P2
2023/03/28 00:00:34;;;;;;;4.80;2.10;;;9.00;99.90;;;;;;5131318;27;20023;-75
2023/03/28 00:03:00;;;;;;;7.13;2.15;;;9.00;99.90;;;;;;5132407;27;20023;-76
2023/03/28 00:05:26;;;;;;;3.65;2.15;;;9.10;99.90;;;;;;5131254;27;20325;-76
2023/03/28 00:07:53;;;;;;;8.68;1.95;;;9.10;99.90;;;;;;5131608;28;20031;-76
2023/03/28 00:10:19;;;;;;;7.82;2.20;;;9.10;99.90;;;;;;5131255;28;20051;-76
2023/03/28 00:12:46;;;;;;;5.70;1.92;;;9.10;99.90;;;;;;5131650;28;20030;-76
2023/03/28 00:15:11;;;;;;;8.05;2.22;;;9.10;99.90;;;;;;5131971;28;20027;-75
2023/03/28 00:17:40;;;;;;;4.00;2.10;;;9.10;99.90;;;;;;5130849;28;20027;-76
2023/03/28 00:20:09;;;;;;;7.32;2.17;;;9.00;99.90;;;;;;5131719;28;20019;-76
2023/03/28 00:22:36;;;;;;;7.25;2.05;;;9.00;99.90;;;;;;5130884;28;20503;-75
2023/03/28 00:25:06;;;;;;;8.38;2.42;;;9.00;99.90;;;;;;5131877;28;20455;-74
2023/03/28 00:27:33;;;;;;;6.57;2.15;;;9.00;99.90;;;;;;5131016;28;20442;-75
2023/03/28 00:30:00;;;;;;;6.03;2.00;;;9.00;99.90;;;;;;5131878;28;20027;-75
2023/03/28 00:32:25;;;;;;;4.78;2.65;;;9.00;99.90;;;;;;5131140;28;20027;-76
2023/03/28 00:34:51;;;;;;;7.07;2.10;;;9.00;99.90;;;;;;5131452;28;20026;-75
2023/03/28 00:37:17;;;;;;;4.57;2.10;;;9.00;99.90;;;;;;5130545;28;20027;-78
2023/03/28 00:39:48;;;;;;;7.55;2.97;;;9.00;99.90;;;;;;5131248;28;20031;-75
2023/03/28 00:42:16;;;;;;;7.53;2.53;;;9.00;99.90;;;;;;5130998;28;20456;-75
2023/03/28 00:44:53;;;;;;;6.65;2.33;;;9.00;99.90;;;;;;5130900;28;20050;-75
2023/03/28 00:47:44;;;;;;;7.30;2.20;;;9.00;99.90;;;;;;5130678;28;20035;-76
2023/03/28 00:50:22;;;;;;;6.35;2.22;;;9.00;99.90;;;;;;5131181;28;20031;-76
2023/03/28 00:53:09;;;;;;;6.75;2.80;;;9.10;99.90;;;;;;5131120;28;20019;-75
2023/03/28 00:55:45;;;;;;;7.50;2.45;;;9.00;99.90;;;;;;5130714;28;20054;-75
2023/03/28 00:58:15;;;;;;;7.35;3.05;;;9.00;99.90;;;;;;5131161;28;20384;-75
2023/03/28 01:00:45;;;;;;;8.25;2.40;;;9.00;99.90;;;;;;5131074;28;20031;-75
2023/03/28 01:03:12;;;;;;;9.55;2.67;;;9.00;99.90;;;;;;5131148;28;20030;-75
2023/03/28 01:05:39;;;;;;;7.82;2.25;;;8.90;99.90;;;;;;5130234;28;20483;-76
2023/03/28 01:08:21;;;;;;;7.80;2.28;;;8.90;99.90;;;;;;5133189;27;20491;-74
2023/03/28 01:10:47;;;;;;;8.63;2.35;;;9.00;99.90;;;;;;5134705;27;20388;-75
2023/03/28 01:13:17;;;;;;;11.50;2.47;;;8.90;99.90;;;;;;5135097;27;20106;-75
2023/03/28 01:15:43;;;;;;;9.55;2.33;;;9.00;99.90;;;;;;5133947;27;20532;-75
2023/03/28 01:18:11;;;;;;;5.82;1.92;;;8.90;99.90;;;;;;5116036;27;20031;-75
2023/03/28 01:21:04;;;;;;;6.13;2.05;;;9.00;99.90;;;;;;5134070;27;20019;-75
2023/03/28 01:24:05;;;;;;;10.60;2.08;;;9.00;99.90;;;;;;5132997;27;20051;-75
2023/03/28 01:26:49;;;;;;;8.48;1.80;;;9.00;99.90;;;;;;5100850;27;20449;-76
2023/03/28 01:29:47;;;;;;;7.63;2.00;;;9.00;99.90;;;;;;5134272;27;20023;-76
2023/03/28 01:32:44;;;;;;;10.23;2.20;;;9.10;99.90;;;;;;5120530;27;20082;-75
2023/03/28 01:35:39;;;;;;;6.53;1.60;;;9.10;99.90;;;;;;5116170;27;20246;-76
2023/03/28 01:38:36;;;;;;;10.05;1.75;;;9.10;99.90;;;;;;5134403;27;20538;-76
2023/03/28 01:41:08;;;;;;;5.07;1.27;;;9.10;99.90;;;;;;5135385;27;20071;-76
2023/03/28 01:44:03;;;;;;;5.68;1.40;;;9.20;99.90;;;;;;5134552;27;20030;-76
2023/03/28 01:46:35;;;;;;;6.25;1.63;;;9.20;99.90;;;;;;5135195;27;20038;-76
2023/03/28 01:49:19;;;;;;;5.53;1.33;;;9.10;99.90;;;;;;5135192;27;20096;-76
2023/03/28 01:52:17;;;;;;;6.50;1.60;;;9.10;99.90;;;;;;5134046;27;20030;-76
2023/03/28 01:55:07;;;;;;;4.00;1.23;;;9.20;99.90;;;;;;5077285;27;20032;-75
2023/03/28 01:58:20;;;;;;;6.07;1.20;;;9.20;99.90;;;;;;5133704;27;20118;-76
2023/03/28 02:00:55;;;;;;;6.25;1.38;;;9.20;99.90;;;;;;5030028;28;20033;-75
2023/03/28 02:03:35;;;;;;;3.13;0.95;;;9.10;99.90;;;;;;5030298;28;20446;-75
2023/03/28 02:06:06;;;;;;;5.53;1.15;;;9.10;99.90;;;;;;5094919;27;20486;-75
2023/03/28 02:08:36;;;;;;;7.57;1.13;;;9.00;99.90;;;;;;5133398;27;20110;-75
2023/03/28 02:11:01;;;;;;;3.20;0.75;;;9.00;99.90;;;;;;5133723;27;20034;-74
2023/03/28 02:13:33;;;;;;;3.58;0.93;;;9.00;99.90;;;;;;5132866;27;20024;-76
2023/03/28 02:16:01;;;;;;;2.05;0.80;;;8.90;99.90;;;;;;5133683;27;20034;-75
2023/03/28 02:18:33;;;;;;;4.50;1.10;;;9.00;99.90;;;;;;5132565;27;20107;-76
2023/03/28 02:21:06;;;;;;;2.90;0.77;;;8.90;99.90;;;;;;5133460;27;20046;-75
2023/03/28 02:23:41;;;;;;;1.77;0.70;;;8.90;99.90;;;;;;5114308;27;20050;-77
2023/03/28 02:26:08;;;;;;;2.35;0.70;;;8.90;99.90;;;;;;5133650;27;20162;-77
2023/03/28 02:28:36;;;;;;;3.58;1.02;;;8.80;99.90;;;;;;5133133;27;20042;-77
2023/03/28 02:31:04;;;;;;;1.42;0.52;;;8.80;99.90;;;;;;5133562;27;20051;-79
2023/03/28 02:33:36;;;;;;;1.20;0.47;;;8.70;99.90;;;;;;5133179;27;20023;-78
2023/03/28 02:36:59;;;;;;;4.22;0.70;;;8.70;99.90;;;;;;5133222;27;20435;-79
2023/03/28 02:39:28;;;;;;;2.72;0.68;;;8.70;99.90;;;;;;5029671;28;20034;-81
2023/03/28 02:42:07;;;;;;;2.20;0.60;;;8.60;99.90;;;;;;5029687;28;20037;-77
2023/03/28 02:45:16;;;;;;;0.90;0.40;;;8.60;99.90;;;;;;5029003;28;20056;-77
2023/03/28 02:47:59;;;;;;;1.25;0.70;;;8.60;99.90;;;;;;5028859;28;20052;-77
2023/03/28 02:50:35;;;;;;;1.10;0.30;;;8.60;99.90;;;;;;5029084;28;20033;-80
2023/03/28 02:53:32;;;;;;;0.95;0.52;;;8.60;99.90;;;;;;5029385;28;20048;-77
2023/03/28 02:56:13;;;;;;;2.47;0.60;;;8.60;99.90;;;;;;5029298;28;20378;-76
2023/03/28 02:58:56;;;;;;;2.20;0.57;;;8.60;99.90;;;;;;5028551;28;20025;-76
2023/03/28 03:01:24;;;;;;;1.10;0.32;;;8.60;99.90;;;;;;5029272;28;20037;-76
2023/03/28 03:03:50;;;;;;;2.45;0.45;;;8.60;99.90;;;;;;5028491;28;20038;-75
2023/03/28 03:06:16;;;;;;;4.60;0.57;;;8.60;99.90;;;;;;5028837;28;20096;-75
2023/03/28 03:08:43;;;;;;;2.10;0.60;;;8.60;99.90;;;;;;5028489;28;20037;-74
2023/03/28 03:11:09;;;;;;;1.42;0.40;;;8.70;99.90;;;;;;5121621;27;20039;-75
2023/03/28 03:13:34;;;;;;;1.90;0.60;;;8.70;99.90;;;;;;5113046;27;20132;-75
2023/03/28 03:16:00;;;;;;;4.30;0.70;;;8.70;99.90;;;;;;5132245;27;20034;-75
2023/03/28 03:18:26;;;;;;;2.30;0.80;;;8.70;99.90;;;;;;5132448;27;20375;-77
2023/03/28 03:20:52;;;;;;;4.20;0.75;;;8.70;99.90;;;;;;5132091;27;20023;-74
2023/03/28 03:23:18;;;;;;;3.03;0.80;;;8.70;99.90;;;;;;5132326;27;20153;-74
2023/03/28 03:25:44;;;;;;;2.90;0.55;;;8.80;99.90;;;;;;5131501;27;20585;-74
2023/03/28 03:28:10;;;;;;;2.45;0.80;;;8.70;99.90;;;;;;5131937;27;20027;-75
2023/03/28 03:30:35;;;;;;;3.10;0.73;;;8.70;99.90;;;;;;5131490;27;20448;-75
2023/03/28 03:33:01;;;;;;;3.15;1.00;;;8.70;99.90;;;;;;5131767;27;20023;-76
2023/03/28 03:35:33;;;;;;;2.13;1.05;;;8.70;99.90;;;;;;5132008;27;20023;-74
2023/03/28 03:38:00;;;;;;;2.30;1.20;;;8.70;99.90;;;;;;5132185;27;20031;-74
2023/03/28 03:40:26;;;;;;;3.30;1.02;;;8.70;99.90;;;;;;5132304;27;20244;-75
2023/03/28 03:42:51;;;;;;;6.38;1.05;;;8.70;99.90;;;;;;5131317;27;20034;-74
2023/03/28 03:45:17;;;;;;;3.03;0.93;;;8.80;99.90;;;;;;5131536;27;20051;-75
2023/03/28 03:47:43;;;;;;;4.35;1.08;;;8.80;99.90;;;;;;5130995;27;20502;-75
2023/03/28 03:50:10;;;;;;;2.83;1.20;;;8.90;99.90;;;;;;5131785;27;20023;-75
2023/03/28 03:52:36;;;;;;;3.67;0.95;;;8.90;99.90;;;;;;5131059;27;20026;-75
2023/03/28 03:55:02;;;;;;;3.65;0.95;;;9.00;99.90;;;;;;5131635;27;20015;-75
2023/03/28 03:57:27;;;;;;;4.32;1.00;;;9.00;99.90;;;;;;5131878;27;20023;-75
2023/03/28 03:59:53;;;;;;;6.57;1.08;;;9.10;99.90;;;;;;5131054;27;20084;-75
2023/03/28 04:02:19;;;;;;;6.65;1.40;;;9.10;99.90;;;;;;5131413;27;20023;-75
2023/03/28 04:04:46;;;;;;;2.80;1.00;;;9.10;99.90;;;;;;5131724;27;20027;-75
2023/03/28 04:07:12;;;;;;;3.15;1.10;;;9.10;99.90;;;;;;5131613;27;20088;-75
2023/03/28 04:09:38;;;;;;;5.57;1.38;;;9.10;99.90;;;;;;5131164;28;20038;-75
2023/03/28 04:12:05;;;;;;;4.38;1.30;;;9.10;99.90;;;;;;5131611;28;20031;-76
2023/03/28 04:14:31;;;;;;;2.40;0.90;;;9.10;99.90;;;;;;5131850;28;20019;-80
2023/03/28 04:16:57;;;;;;;3.20;1.00;;;9.10;99.90;;;;;;5131563;28;20446;-77
2023/03/28 04:19:23;;;;;;;3.08;0.70;;;9.00;99.90;;;;;;5131114;28;20027;-77
2023/03/28 04:21:51;;;;;;;4.45;1.17;;;9.00;99.90;;;;;;5112400;28;20448;-77
2023/03/28 04:24:23;;;;;;;3.45;1.30;;;8.90;99.90;;;;;;5131385;28;20027;-78
2023/03/28 04:26:49;;;;;;;4.00;1.20;;;8.90;99.90;;;;;;5131106;28;20096;-78
2023/03/28 04:29:16;;;;;;;3.95;0.90;;;8.80;99.90;;;;;;5131365;28;20028;-78
2023/03/28 04:31:48;;;;;;;3.33;1.10;;;8.80;99.90;;;;;;5130546;28;20427;-78
2023/03/28 04:34:14;;;;;;;5.88;1.35;;;8.70;99.90;;;;;;5131944;28;20465;-78
2023/03/28 04:36:40;;;;;;;5.78;1.20;;;8.70;99.90;;;;;;5130973;28;20064;-78
2023/03/28 04:39:07;;;;;;;4.47;1.42;;;8.70;99.90;;;;;;5131704;28;20027;-77
2023/03/28 04:41:33;;;;;;;2.33;1.02;;;8.60;99.90;;;;;;5131029;27;20404;-81
2023/03/28 04:43:59;;;;;;;2.58;1.20;;;8.60;99.90;;;;;;5134619;27;20050;-77
2023/03/28 04:46:27;;;;;;;2.05;1.08;;;8.60;99.90;;;;;;5135392;27;20114;-76
2023/03/28 04:48:53;;;;;;;1.75;1.00;;;8.60;99.90;;;;;;5116434;27;20146;-77
2023/03/28 04:51:18;;;;;;;3.13;1.00;;;8.60;99.90;;;;;;5136099;27;20109;-76
2023/03/28 04:53:44;;;;;;;5.10;1.02;;;8.60;99.90;;;;;;5135230;27;20050;-76
2023/03/28 04:56:12;;;;;;;2.35;0.93;;;8.60;99.90;;;;;;5135678;27;20027;-76
2023/03/28 04:58:39;;;;;;;3.38;1.00;;;8.60;99.90;;;;;;5135226;27;20055;-76
2023/03/28 05:01:09;;;;;;;3.35;1.30;;;8.60;99.90;;;;;;5135591;27;20023;-75
2023/03/28 05:03:36;;;;;;;1.98;1.08;;;8.60;99.90;;;;;;5135050;27;20480;-80
2023/03/28 05:06:02;;;;;;;3.65;1.48;;;8.50;99.90;;;;;;5135463;27;20118;-75
2023/03/28 05:08:28;;;;;;;3.58;0.88;;;8.50;99.90;;;;;;5135569;27;20033;-76
2023/03/28 05:10:54;;;;;;;4.47;1.25;;;8.60;99.90;;;;;;5134834;27;20800;-76
2023/03/28 05:13:20;;;;;;;4.25;1.05;;;8.60;99.90;;;;;;5116821;27;20475;-76
2023/03/28 05:15:47;;;;;;;4.72;1.58;;;8.60;99.90;;;;;;5135082;27;20027;-76
2023/03/28 05:18:14;;;;;;;3.38;1.10;;;8.60;99.90;;;;;;5135247;27;20034;-76
2023/03/28 05:20:40;;;;;;;5.00;1.15;;;8.60;99.90;;;;;;5134481;27;20034;-77
2023/03/28 05:23:06;;;;;;;3.53;1.25;;;8.60;99.90;;;;;;5135199;27;20551;-76
2023/03/28 05:25:32;;;;;;;6.20;1.60;;;8.60;99.90;;;;;;5134915;27;20130;-75
2023/03/28 05:27:58;;;;;;;1.70;1.25;;;8.70;99.90;;;;;;5134502;27;20130;-76
2023/03/28 05:30:24;;;;;;;4.82;1.52;;;8.60;99.90;;;;;;5135036;27;20031;-76
2023/03/28 05:32:49;;;;;;;6.20;1.17;;;8.70;99.90;;;;;;5115482;27;20023;-76
2023/03/28 05:35:15;;;;;;;3.90;1.30;;;8.70;99.90;;;;;;5134880;27;20027;-76
2023/03/28 05:37:42;;;;;;;4.90;1.00;;;8.70;99.90;;;;;;5134495;27;20058;-77
2023/03/28 05:40:09;;;;;;;5.15;1.42;;;8.70;99.90;;;;;;5134409;27;20044;-76
2023/03/28 05:42:36;;;;;;;2.78;1.20;;;8.70;99.90;;;;;;5134132;27;20030;-75
2023/03/28 05:45:04;;;;;;;2.78;1.30;;;8.70;99.90;;;;;;5115303;27;20038;-76
2023/03/28 05:47:30;;;;;;;6.65;1.48;;;8.70;99.90;;;;;;5133946;27;20069;-75
2023/03/28 05:49:55;;;;;;;4.32;1.33;;;8.70;99.90;;;;;;5133441;27;20027;-75
2023/03/28 05:52:21;;;;;;;4.43;1.35;;;8.70;99.90;;;;;;5115146;27;20118;-76
2023/03/28 05:54:48;;;;;;;3.50;1.80;;;8.80;99.90;;;;;;5132898;27;20023;-76
2023/03/28 05:57:14;;;;;;;5.97;1.35;;;8.80;99.90;;;;;;5133613;27;20031;-76
2023/03/28 05:59:41;;;;;;;5.63;1.50;;;8.80;99.90;;;;;;5133396;27;20174;-80
2023/03/28 06:02:18;;;;;;;6.03;1.52;;;8.90;99.90;;;;;;5133752;27;20044;-76
2023/03/28 06:04:44;;;;;;;5.07;1.50;;;9.00;99.90;;;;;;5132901;27;20494;-76
2023/03/28 06:07:12;;;;;;;4.00;1.40;;;9.00;99.90;;;;;;5133496;27;20082;-75
2023/03/28 06:09:38;;;;;;;3.58;1.08;;;9.00;99.90;;;;;;5133888;27;20027;-74
2023/03/28 06:12:05;;;;;;;5.15;1.17;;;9.00;99.90;;;;;;5133407;27;20523;-75
2023/03/28 06:14:31;;;;;;;4.60;1.05;;;9.00;99.90;;;;;;5133597;27;20111;-75
2023/03/28 06:16:57;;;;;;;3.33;1.20;;;9.00;99.90;;;;;;5133381;27;20027;-74
2023/03/28 06:19:23;;;;;;;4.38;1.13;;;9.10;99.90;;;;;;5133696;27;20034;-75
2023/03/28 06:21:49;;;;;;;4.40;1.08;;;9.10;99.90;;;;;;5132967;27;20058;-75
2023/03/28 06:24:15;;;;;;;4.40;1.02;;;9.10;99.90;;;;;;5133364;27;20019;-75
2023/03/28 06:26:40;;;;;;;3.22;1.23;;;9.10;99.90;;;;;;5133818;27;20023;-77
2023/03/28 06:29:06;;;;;;;3.58;1.23;;;9.10;99.90;;;;;;5134233;27;20023;-75
2023/03/28 06:31:32;;;;;;;2.53;1.23;;;9.00;99.90;;;;;;5133955;27;20027;-74
2023/03/28 06:33:58;;;;;;;3.67;1.10;;;9.00;99.90;;;;;;5082079;27;20390;-75
2023/03/28 06:36:24;;;;;;;3.85;1.08;;;9.00;99.90;;;;;;5134248;27;20095;-75
2023/03/28 06:38:52;;;;;;;3.53;0.98;;;9.00;99.90;;;;;;5134355;27;20162;-75
2023/03/28 06:41:18;;;;;;;3.38;1.33;;;9.00;99.90;;;;;;5137206;27;20019;-76
2023/03/28 06:43:44;;;;;;;4.28;0.90;;;8.90;99.90;;;;;;5137059;27;20035;-78
2023/03/28 06:46:12;;;;;;;2.83;1.15;;;8.90;99.90;;;;;;5132666;27;20027;-76
2023/03/28 06:48:38;;;;;;;12.40;1.92;;;8.90;99.90;;;;;;5132725;27;20504;-76
2023/03/28 06:51:04;;;;;;;7.40;1.23;;;9.00;99.90;;;;;;5131944;27;20027;-76
2023/03/28 06:53:30;;;;;;;2.33;1.17;;;9.00;99.90;;;;;;5114314;27;20126;-76
2023/03/28 06:55:57;;;;;;;4.80;1.23;;;9.00;99.90;;;;;;5132076;27;20428;-75
2023/03/28 06:58:23;;;;;;;2.45;1.38;;;9.00;99.90;;;;;;5132696;27;20479;-75
2023/03/28 07:00:51;;;;;;;4.55;1.38;;;9.10;99.90;;;;;;5132301;27;20023;-76
2023/03/28 07:03:17;;;;;;;3.40;1.25;;;9.10;99.90;;;;;;5132709;27;20034;-76
2023/03/28 07:05:43;;;;;;;4.82;1.45;;;9.10;99.90;;;;;;5131807;27;20023;-78
2023/03/28 07:08:11;;;;;;;4.47;1.50;;;9.20;99.90;;;;;;5132380;27;20029;-75
2023/03/28 07:10:38;;;;;;;5.57;1.58;;;9.20;99.90;;;;;;5132443;27;20526;-75
2023/03/28 07:13:04;;;;;;;5.70;1.88;;;9.30;99.90;;;;;;5131435;27;20554;-76
2023/03/28 07:15:30;;;;;;;4.35;1.30;;;9.30;99.90;;;;;;5113658;27;20029;-75
2023/03/28 07:17:56;;;;;;;5.38;1.40;;;9.30;99.90;;;;;;5131757;27;20027;-75
2023/03/28 07:20:23;;;;;;;9.15;1.40;;;9.30;99.90;;;;;;5113818;27;20420;-75
2023/03/28 07:22:49;;;;;;;5.00;1.20;;;9.40;99.90;;;;;;5131762;27;20051;-76
2023/03/28 07:25:15;;;;;;;6.53;1.05;;;9.50;99.90;;;;;;5131978;27;20027;-76
2023/03/28 07:27:41;;;;;;;3.47;1.00;;;9.50;99.90;;;;;;5113724;27;20077;-75
2023/03/28 07:30:09;;;;;;;4.78;1.15;;;9.60;99.90;;;;;;5131813;27;20068;-74
2023/03/28 07:32:35;;;;;;;6.05;1.50;;;9.60;99.90;;;;;;5131904;27;20075;-75
2023/03/28 07:35:05;;;;;;;7.65;1.50;;;9.60;99.90;;;;;;5113102;27;20067;-75
2023/03/28 07:37:32;;;;;;;4.50;1.20;;;9.60;99.90;;;;;;5132004;27;20608;-74
2023/03/28 07:39:59;;;;;;;2.63;0.80;;;9.60;99.90;;;;;;5131615;27;20046;-74
2023/03/28 07:42:25;;;;;;;4.70;1.35;;;9.70;99.90;;;;;;5131944;27;20023;-75
2023/03/28 07:44:52;;;;;;;3.83;1.08;;;9.70;99.90;;;;;;5112712;27;20351;-76
2023/03/28 07:47:18;;;;;;;6.97;1.55;;;9.70;99.90;;;;;;5113567;27;20019;-75
2023/03/28 07:49:44;;;;;;;5.03;1.20;;;9.70;99.90;;;;;;5131970;27;20049;-75
2023/03/28 07:52:10;;;;;;;3.65;1.10;;;9.80;99.90;;;;;;5112951;27;20408;-75
2023/03/28 07:54:36;;;;;;;3.17;0.95;;;9.80;99.90;;;;;;5132217;27;20072;-76
2023/03/28 07:57:03;;;;;;;5.10;1.20;;;9.90;99.90;;;;;;5131086;27;20032;-76
2023/03/28 07:59:29;;;;;;;7.88;1.35;;;9.90;99.90;;;;;;5113589;28;20030;-76
2023/03/28 08:01:54;;;;;;;5.45;1.20;;;9.90;99.90;;;;;;5113023;27;20114;-76
2023/03/28 08:04:20;;;;;;;7.55;1.48;;;9.90;99.90;;;;;;5133405;27;20511;-76
2023/03/28 08:06:51;;;;;;;5.25;1.25;;;9.90;99.90;;;;;;5134080;27;20059;-75
2023/03/28 08:09:17;;;;;;;4.07;1.95;;;9.90;99.90;;;;;;5115379;28;20054;-75
2023/03/28 08:11:45;;;;;;;22.80;3.53;;;9.90;99.90;;;;;;5115373;28;20027;-76
2023/03/28 08:14:14;;;;;;;24.40;3.58;;;9.90;99.90;;;;;;5132359;28;20024;-75
2023/03/28 08:16:41;;;;;;;4.50;2.10;;;9.90;99.90;;;;;;5131288;27;20029;-75
2023/03/28 08:19:07;;;;;;;4.45;1.65;;;10.00;99.90;;;;;;5135242;27;20028;-76
2023/03/28 08:21:34;;;;;;;4.07;1.50;;;10.00;99.90;;;;;;5135057;27;20094;-77
2023/03/28 08:24:01;;;;;;;4.10;1.00;;;10.10;99.90;;;;;;5134364;27;20023;-76
2023/03/28 08:26:27;;;;;;;1.85;1.17;;;10.10;99.90;;;;;;5135525;27;20019;-76
2023/03/28 08:28:57;;;;;;;3.58;0.98;;;10.20;99.90;;;;;;5116345;27;20038;-77
2023/03/28 08:31:25;;;;;;;4.53;1.40;;;10.20;99.90;;;;;;5134890;27;20077;-76
2023/03/28 08:33:52;;;;;;;4.43;0.93;;;10.30;99.90;;;;;;5134386;27;20111;-79
2023/03/28 08:36:20;;;;;;;3.85;0.95;;;10.40;99.90;;;;;;5134515;27;20103;-76
2023/03/28 08:38:48;;;;;;;3.63;1.00;;;10.40;99.90;;;;;;5134618;27;20069;-75
2023/03/28 08:41:37;;;;;;;3.13;0.70;;;10.50;99.90;;;;;;5134084;27;20023;-76
2023/03/28 08:44:36;;;;;;;2.88;1.17;;;10.50;99.90;;;;;;5125989;27;20506;-76
2023/03/28 08:47:09;;;;;;;3.95;1.10;;;10.60;99.90;;;;;;5119906;27;20088;-77
2023/03/28 08:49:43;;;;;;;;;;;10.70;99.90;;;;;;5134926;27;20479;-75
2023/03/28 08:52:12;;;;;;;4.97;0.73;;;10.80;99.90;;;;;;5134344;27;19908;-75
2023/03/28 08:54:50;;;;;;;2.88;0.68;;;10.90;99.90;;;;;;5134152;27;20023;-75
2023/03/28 08:57:23;;;;;;;3.63;0.55;;;10.90;99.90;;;;;;5134346;27;20027;-75
2023/03/28 09:00:18;;;;;;;1.90;0.60;;;11.00;99.90;;;;;;5134408;27;20023;-79
2023/03/28 09:02:45;;;;;;;2.45;0.52;;;11.00;99.90;;;;;;5115817;27;20102;-74
2023/03/28 09:05:30;;;;;;;2.35;0.80;;;11.00;99.90;;;;;;5133574;27;20023;-78
2023/03/28 09:08:18;;;;;;;2.42;0.65;;;11.10;99.90;;;;;;5133168;27;20359;-75
2023/03/28 09:10:55;;;;;;;1.20;0.50;;;11.30;99.90;;;;;;5134080;27;20019;-75
2023/03/28 09:13:24;;;;;;;1.45;0.65;;;11.50;99.90;;;;;;5133984;27;20492;-75
2023/03/28 09:16:28;;;;;;;1.67;0.50;;;11.60;99.90;;;;;;5134195;27;20023;-77
2023/03/28 09:19:31;;;;;;;1.60;0.60;;;11.70;99.90;;;;;;5117918;27;20038;-76
2023/03/28 09:22:27;;;;;;;3.22;1.25;;;11.80;99.90;;;;;;5133387;27;20126;-76
2023/03/28 09:25:03;;;;;;;2.50;0.57;;;11.70;99.90;;;;;;5133332;27;20023;-78
2023/03/28 09:27:34;;;;;;;3.28;1.67;;;11.80;99.90;;;;;;5133848;27;20035;-75
2023/03/28 09:30:22;;;;;;;1.30;0.68;;;11.80;99.90;;;;;;5132998;27;20080;-76
2023/03/28 09:32:49;;;;;;;0.60;0.28;;;12.00;99.90;;;;;;5115335;27;20384;-76
2023/03/28 09:35:18;;;;;;;0.95;0.45;;;12.20;99.90;;;;;;5133534;27;20027;-76
2023/03/28 09:37:50;;;;;;;0.65;0.50;;;12.40;99.90;;;;;;5133523;27;20130;-76
2023/03/28 09:40:23;;;;;;;2.85;0.60;;;12.60;99.90;;;;;;5132942;27;20020;-76
2023/03/28 09:42:52;;;;;;;2.90;0.63;;;12.70;99.90;;;;;;5133167;27;20031;-76
2023/03/28 09:45:38;;;;;;;1.48;0.70;;;12.80;99.90;;;;;;5132755;27;20106;-76
2023/03/28 09:48:05;;;;;;;0.25;0.20;;;12.80;99.90;;;;;;5132194;27;20186;-74
2023/03/28 09:50:31;;;;;;;0.52;0.20;;;12.80;99.90;;;;;;5133178;27;20034;-80
2023/03/28 09:52:57;;;;;;;1.55;0.40;;;12.70;99.90;;;;;;5132160;27;20023;-77
2023/03/28 09:55:26;;;;;;;1.63;0.30;;;12.70;99.90;;;;;;5132735;27;20365;-75
2023/03/28 09:58:00;;;;;;;1.45;0.30;;;12.70;99.90;;;;;;5132942;27;20046;-79
2023/03/28 10:00:26;;;;;;;9.18;1.23;;;12.70;99.90;;;;;;5133176;27;20034;-75
2023/03/28 10:02:52;;;;;;;17.27;2.20;;;12.80;99.90;;;;;;5133197;27;20031;-76
2023/03/28 10:05:32;;;;;;;6.20;0.80;;;12.90;99.90;;;;;;5132713;27;20023;-76
2023/03/28 10:08:01;;;;;;;8.77;1.67;;;13.10;99.90;;;;;;5132308;27;20035;-75
2023/03/28 10:10:27;;;;;;;1.10;0.52;;;13.10;99.90;;;;;;5133000;27;20464;-75
2023/03/28 10:13:01;;;;;;;0.90;0.30;;;13.10;99.90;;;;;;5132961;27;20055;-78
2023/03/28 10:15:43;;;;;;;0.68;0.25;;;13.20;99.90;;;;;;5132878;27;20023;-76
2023/03/28 10:18:16;;;;;;;2.50;0.40;;;13.20;99.90;;;;;;5132112;27;20463;-75
2023/03/28 10:20:42;;;;;;;1.17;0.30;;;13.20;99.90;;;;;;5133049;27;20027;-75
2023/03/28 10:23:12;;;;;;;1.27;0.50;;;13.20;99.90;;;;;;5132177;27;20051;-75
2023/03/28 10:25:41;;;;;;;0.60;0.20;;;13.30;99.90;;;;;;5132998;27;20023;-76
2023/03/28 10:28:13;;;;;;;1.70;0.98;;;13.30;99.90;;;;;;5132178;27;20027;-76
2023/03/28 10:30:39;;;;;;;1.67;0.40;;;13.30;99.90;;;;;;5132715;27;20068;-76
2023/03/28 10:33:21;;;;;;;1.02;0.40;;;13.40;99.90;;;;;;5132325;27;20028;-76
2023/03/28 10:36:04;;;;;;;1.30;0.60;;;13.50;99.90;;;;;;5132770;27;20062;-75
2023/03/28 10:38:44;;;;;;;1.33;0.50;;;13.70;99.90;;;;;;5132417;27;20107;-75
2023/03/28 10:41:21;;;;;;;1.80;0.40;;;13.70;99.90;;;;;;5131204;27;20027;-76
2023/03/28 10:43:48;;;;;;;2.15;0.35;;;13.70;99.90;;;;;;5114231;27;20374;-74
2023/03/28 10:46:34;;;;;;;2.83;0.30;;;13.80;99.90;;;;;;5113109;27;20035;-75
2023/03/28 10:49:02;;;;;;;85.57;8.18;;;14.00;99.90;;;;;;5131898;27;20023;-76
2023/03/28 10:51:33;;;;;;;13.32;2.00;;;14.20;99.90;;;;;;5113648;27;20414;-76
2023/03/28 10:54:23;;;;;;;4.18;0.70;;;14.40;99.90;;;;;;5131514;27;20019;-76
2023/03/28 10:57:03;;;;;;;2.65;0.20;;;14.60;99.90;;;;;;5131954;27;20046;-75
2023/03/28 10:59:47;;;;;;;0.93;0.22;;;14.60;99.90;;;;;;5132195;27;20103;-75
2023/03/28 11:02:40;;;;;;;2.92;0.40;;;14.60;99.90;;;;;;5131612;27;20027;-74
2023/03/28 11:05:26;;;;;;;16.92;2.08;;;14.40;99.90;;;;;;5131319;27;20094;-75
2023/03/28 11:08:28;;;;;;;2.40;0.20;;;14.40;99.90;;;;;;5131649;27;20038;-75
2023/03/28 11:11:06;;;;;;;4.75;0.50;;;14.30;99.90;;;;;;5131609;27;20029;-79
2023/03/28 11:13:59;;;;;;;4.13;0.50;;;14.30;99.90;;;;;;5132170;27;20046;-75
2023/03/28 11:16:43;;;;;;;0.98;0.30;;;14.40;99.90;;;;;;5131952;27;20118;-75
2023/03/28 11:19:30;;;;;;;22.00;3.05;;;14.40;99.90;;;;;;5131609;27;20027;-75
2023/03/28 11:22:14;;;;;;;15.00;1.80;;;14.50;99.90;;;;;;5131163;27;20047;-79
2023/03/28 11:24:55;;;;;;;5.47;0.85;;;14.50;99.90;;;;;;5131183;27;20098;-75
2023/03/28 11:27:20;;;;;;;1.52;0.60;;;14.50;99.90;;;;;;5131239;27;20035;-75
2023/03/28 11:30:11;;;;;;;7.82;0.82;;;14.50;99.90;;;;;;5131311;27;20049;-75
2023/03/28 11:32:48;;;;;;;0.55;0.30;;;14.40;99.90;;;;;;5131765;27;20027;-76
2023/03/28 11:35:43;;;;;;;4.32;0.30;;;14.30;99.90;;;;;;5130953;27;20034;-75
2023/03/28 11:38:36;;;;;;;2.00;0.55;;;14.30;99.90;;;;;;5125378;27;20122;-75
2023/03/28 11:41:17;;;;;;;4.07;0.57;;;14.30;99.90;;;;;;5131332;27;20110;-75
2023/03/28 11:43:58;;;;;;;1.70;0.35;;;14.40;99.90;;;;;;5112832;27;20062;-75
2023/03/28 11:46:30;;;;;;;2.38;0.47;;;14.40;99.90;;;;;;5130896;27;20031;-75
2023/03/28 11:49:07;;;;;;;1.58;0.40;;;14.40;99.90;;;;;;5130640;27;20058;-78
2023/03/28 11:51:56;;;;;;;2.08;0.30;;;14.40;99.90;;;;;;5130491;27;20023;-75
2023/03/28 11:55:04;;;;;;;1.52;0.47;;;14.40;99.90;;;;;;5131149;27;20142;-75
2023/03/28 11:57:39;;;;;;;1.05;0.40;;;14.40;99.90;;;;;;5028553;28;20172;-75
2023/03/28 12:00:17;;;;;;;3.40;0.50;;;14.50;99.90;;;;;;5027848;28;20320;-75
2023/03/28 12:02:51;;;;;;;3.13;0.35;;;14.50;99.90;;;;;;5091817;27;20041;-75
2023/03/28 12:05:31;;;;;;;5.10;1.35;;;14.60;99.90;;;;;;5131378;27;20030;-76
2023/03/28 12:08:09;;;;;;;0.60;0.30;;;14.60;99.90;;;;;;5131578;27;20035;-80
2023/03/28 12:10:37;;;;;;;2.08;0.60;;;14.60;99.90;;;;;;5132153;27;20023;-75
2023/03/28 12:13:08;;;;;;;1.52;0.40;;;14.70;99.90;;;;;;5131144;27;20059;-75
2023/03/28 12:16:02;;;;;;;3.85;0.65;;;14.70;99.90;;;;;;5132301;28;20042;-76
2023/03/28 12:18:41;;;;;;;1.13;0.32;;;14.70;99.90;;;;;;5129955;28;20043;-75
2023/03/28 12:21:26;;;;;;;1.13;0.30;;;14.70;99.90;;;;;;5130217;28;20062;-75
2023/03/28 12:24:13;;;;;;;1.60;0.50;;;14.60;99.90;;;;;;5131289;28;20035;-74
2023/03/28 12:26:41;;;;;;;2.05;0.30;;;14.60;99.90;;;;;;5112555;28;20047;-74
2023/03/28 12:29:50;;;;;;;2.00;0.95;;;14.80;99.90;;;;;;5130250;28;20031;-76
2023/03/28 12:32:28;;;;;;;1.45;0.32;;;14.80;99.90;;;;;;5116611;28;20198;-76
2023/03/28 12:35:25;;;;;;;2.60;0.35;;;14.70;99.90;;;;;;5130986;28;20027;-75
2023/03/28 12:37:58;;;;;;;1.38;0.45;;;14.70;99.90;;;;;;5131332;28;20133;-74
2023/03/28 12:40:48;;;;;;;1.85;0.60;;;14.50;99.90;;;;;;5131369;28;20061;-76
2023/03/28 12:43:16;;;;;;;3.10;0.80;;;14.50;99.90;;;;;;5112112;28;20043;-75
2023/03/28 12:45:51;;;;;;;3.33;0.60;;;14.40;99.90;;;;;;5131187;28;20019;-75
2023/03/28 12:48:27;;;;;;;3.22;0.57;;;14.50;99.90;;;;;;5130498;28;20471;-75
2023/03/28 12:51:01;;;;;;;1.90;0.60;;;14.60;99.90;;;;;;5131525;28;20051;-75
2023/03/28 12:53:31;;;;;;;1.38;0.90;;;14.60;99.90;;;;;;5130765;28;20031;-75
2023/03/28 12:55:57;;;;;;;1.00;0.43;;;14.60;99.90;;;;;;5131596;28;20019;-74
2023/03/28 12:58:28;;;;;;;9.18;0.93;;;14.60;99.90;;;;;;5130338;28;20033;-76
2023/03/28 13:01:06;;;;;;;1.95;0.60;;;14.60;99.90;;;;;;5130810;28;20035;-76
2023/03/28 13:03:53;;;;;;;2.30;0.77;;;14.60;99.90;;;;;;5131955;27;20460;-75
2023/03/28 13:06:42;;;;;;;5.30;0.90;;;14.50;99.90;;;;;;5134110;27;20211;-75
2023/03/28 13:09:30;;;;;;;7.25;1.10;;;14.50;99.90;;;;;;5134020;27;20118;-74
2023/03/28 13:12:13;;;;;;;3.53;0.52;;;14.50;99.90;;;;;;5135445;27;20035;-75
2023/03/28 13:14:41;;;;;;;1.50;0.40;;;14.50;99.90;;;;;;5135047;27;20046;-75
2023/03/28 13:17:20;;;;;;;9.23;1.42;;;14.40;99.90;;;;;;5134022;27;20356;-76
2023/03/28 13:20:17;;;;;;;2.33;0.95;;;14.50;99.90;;;;;;5134551;27;20124;-76
2023/03/28 13:22:56;;;;;;;3.10;1.00;;;14.60;99.90;;;;;;5134636;27;20492;-76